Time;durP1;ratioP1;P1;durP2;ratioP2;P2;SDS_P1;SDS_P2;PMS_P1;PMS_P2;Temp;Humidity;BMP_temperature;BMP_pressure;BME280_temperature;BME280_humidity;BME280_pressure;Samples;Min_cycle;Max_cycle;Signal;HPM_P1;HPM_P2
2022/01/22 00:00:39;;;;;;;1.92;1.07;;;;;;;0.16;87.11;101221.87;1919082;73;21011;-59
2022/01/22 00:03:08;;;;;;;1.60;0.95;;;;;;;0.14;87.22;101219.69;1919662;73;21509;-62
2022/01/22 00:05:36;;;;;;;4.20;1.42;;;;;;;0.12;87.28;101217.08;1918474;73;21735;-61
2022/01/22 00:08:06;;;;;;;1.60;1.10;;;;;;;0.12;87.28;101216.22;1921723;73;21239;-61
2022/01/22 00:10:34;;;;;;;1.85;1.20;;;;;;;0.13;87.21;101210.17;1910405;73;21059;-63
2022/01/22 00:15:35;;;;;;;2.33;1.20;;;;;;;0.11;87.26;101207.59;1918155;73;21050;-61
2022/01/22 00:18:04;;;;;;;3.65;1.40;;;;;;;0.12;87.21;101201.55;1914325;73;21017;-59
2022/01/22 00:20:33;;;;;;;1.42;1.00;;;;;;;0.09;87.13;101201.53;1902410;74;21440;-58
2022/01/22 00:23:02;;;;;;;2.08;1.10;;;;;;;0.09;87.28;101205.81;1903636;75;21029;-58
2022/01/22 00:25:31;;;;;;;1.98;1.20;;;;;;;0.10;87.37;101210.16;1918145;75;21047;-59
2022/01/22 00:28:01;;;;;;;1.72;1.00;;;;;;;0.08;87.39;101210.56;1917803;75;21467;-59
2022/01/22 00:30:30;;;;;;;2.67;1.42;;;;;;;0.08;87.42;101209.27;1917760;75;21460;-60
2022/01/22 00:32:59;;;;;;;1.62;1.00;;;;;;;0.08;87.33;101206.69;1917888;75;21155;-59
2022/01/22 00:35:27;;;;;;;2.15;0.88;;;;;;;0.07;87.50;101210.97;1915179;75;21096;-60
2022/01/22 00:37:56;;;;;;;2.05;1.50;;;;;;;0.04;87.54;101210.06;1902577;75;21531;-58
2022/01/22 00:40:25;;;;;;;1.47;1.00;;;;;;;-0.03;87.61;101209.14;1910839;73;21109;-60
2022/01/22 00:42:53;;;;;;;0.80;0.80;;;;;;;-0.04;87.64;101204.80;1918292;73;21567;-60
2022/01/22 00:45:22;;;;;;;1.30;1.10;;;;;;;-0.08;87.58;101210.37;1837627;77;21159;-61
2022/01/22 00:47:51;;;;;;;0.80;0.75;;;;;;;-0.07;87.40;101207.38;1909473;73;21480;-60
2022/01/22 00:50:23;;;;;;;2.75;1.00;;;;;;;-0.06;87.38;101208.66;1826744;77;21563;-59
2022/01/22 00:52:53;;;;;;;2.12;1.00;;;;;;;-0.04;87.37;101203.50;1916593;74;21047;-60
2022/01/22 00:55:21;;;;;;;2.33;1.10;;;;;;;0.00;87.29;101209.19;1917732;75;21105;-61
2022/01/22 00:57:50;;;;;;;1.32;1.10;;;;;;;-0.07;87.37;101206.94;1917860;75;21066;-60
2022/01/22 01:00:19;;;;;;;1.27;1.10;;;;;;;-0.11;87.50;101218.52;1917756;75;21056;-63
2022/01/22 01:02:48;;;;;;;2.60;1.52;;;;;;;-0.12;87.64;101232.33;1913181;75;21470;-60
2022/01/22 01:05:17;;;;;;;3.92;1.50;;;;;;;-0.09;87.63;101228.06;1917858;75;21090;-60
2022/01/22 01:07:46;;;;;;;2.05;1.30;;;;;;;-0.05;87.60;101225.09;1917922;75;21212;-60
2022/01/22 01:10:17;;;;;;;0.85;0.80;;;;;;;-0.03;87.50;101228.12;1917806;75;21063;-60
2022/01/22 01:12:48;;;;;;;1.85;1.22;;;;;;;-0.07;87.51;101223.77;1922381;74;21061;-60
2022/01/22 01:15:42;;;;;;;2.12;1.30;;;;;;;-0.07;87.52;101225.06;1923034;74;21070;-58
2022/01/22 01:32:17;;;;;;;0.80;0.80;;;;;;;0.03;87.02;101226.47;1903043;75;21061;-58
2022/01/22 01:34:44;;;;;;;1.37;0.70;;;;;;;0.00;86.97;101226.02;1902282;75;21120;-57
2022/01/22 01:37:16;;;;;;;2.40;0.85;;;;;;;0.03;86.87;101234.23;1902926;75;21103;-57
2022/01/22 01:39:48;;;;;;;2.47;1.17;;;;;;;-0.01;86.82;101234.63;1903211;75;21038;-59
2022/01/22 01:42:30;;;;;;;1.10;0.80;;;;;;;-0.04;87.04;101241.05;1903045;75;21171;-58
2022/01/22 01:44:48;;;;;;;1.35;0.95;;;;;;;-0.06;87.14;101243.61;1900374;75;21144;-59
2022/01/22 01:47:19;;;;;;;2.77;1.20;;;;;;;-0.06;87.12;101248.78;1914407;74;21114;-60
2022/01/22 01:49:48;;;;;;;1.87;0.93;;;;;;;-0.06;87.14;101263.46;1895751;74;21188;-58
2022/01/22 01:52:31;;;;;;;1.77;1.22;;;;;;;-0.05;87.04;101267.80;1898313;75;21114;-58
2022/01/22 01:57:38;;;;;;;2.10;0.82;;;;;;;-0.09;86.89;101265.59;1949998;73;21066;-59
2022/01/22 02:00:04;;;;;;;3.10;1.10;;;;;;;-0.07;86.87;101262.59;1949163;73;21050;-59
2022/01/22 02:02:46;;;;;;;1.50;1.07;;;;;;;-0.09;86.87;101261.71;1949930;73;21510;-59
2022/01/22 02:05:20;;;;;;;2.17;1.20;;;;;;;-0.11;86.98;101268.99;1947519;73;21079;-60
2022/01/22 02:07:54;;;;;;;1.52;1.00;;;;;;;-0.13;87.07;101264.22;1934246;74;21055;-60
2022/01/22 02:10:26;;;;;;;1.42;1.00;;;;;;;-0.11;87.02;101272.88;1934191;74;21483;-60
2022/01/22 02:23:53;;;;;;;6.65;1.12;;;;;;;-0.13;86.63;101270.30;1889065;75;21035;-60
2022/01/22 02:26:22;;;;;;;2.02;1.52;;;;;;;-0.19;86.76;101267.60;1919119;75;21105;-60
2022/01/22 02:28:53;;;;;;;1.45;1.00;;;;;;;-0.17;86.74;101269.78;1918963;75;21027;-59
2022/01/22 02:31:41;;;;;;;4.80;1.35;;;;;;;-0.21;86.93;101262.83;1917405;75;21063;-59
2022/01/22 02:34:26;;;;;;;5.20;1.27;;;;;;;-0.22;86.97;101265.00;1918377;75;21102;-60
2022/01/22 02:37:05;;;;;;;2.33;0.90;;;;;;;-0.25;86.95;101266.23;1917388;75;21595;-59
2022/01/22 02:39:44;;;;;;;3.85;1.65;;;;;;;-0.34;86.99;101264.81;1918098;75;21075;-60
2022/01/22 02:42:07;;;;;;;1.12;0.82;;;;;;;-0.33;87.17;101269.12;1883312;76;21473;-60
2022/01/22 02:44:44;;;;;;;3.00;1.50;;;;;;;-0.30;87.13;101266.16;1918878;74;21102;-59
2022/01/22 02:47:08;;;;;;;1.02;0.88;;;;;;;-0.26;86.82;101255.42;1883838;76;21179;-58
2022/01/22 02:49:38;;;;;;;1.17;1.07;;;;;;;-0.30;86.52;101245.45;1918858;74;21192;-59
2022/01/22 02:52:11;;;;;;;1.52;1.07;;;;;;;-0.32;86.41;101234.65;1884877;76;21532;-59
2022/01/22 02:54:41;;;;;;;2.15;0.90;;;;;;;-0.37;86.39;101237.59;1937064;74;21155;-59
2022/01/22 02:57:11;;;;;;;1.22;0.80;;;;;;;-0.44;86.49;101228.89;1938272;74;21116;-58
2022/01/22 02:59:41;;;;;;;7.50;3.40;;;;;;;-0.52;86.65;101227.47;1938176;74;21042;-57
2022/01/22 03:02:16;;;;;;;6.62;3.15;;;;;;;-0.53;86.73;101234.80;1938158;74;21042;-57
2022/01/22 03:04:42;;;;;;;10.08;3.20;;;;;;;-0.50;86.73;101241.32;1936914;74;21109;-58
2022/01/22 03:07:12;;;;;;;6.92;3.15;;;;;;;-0.50;86.75;101246.50;1938318;74;21116;-57
2022/01/22 03:09:44;;;;;;;7.33;2.77;;;;;;;-0.52;87.08;101248.59;1938254;74;21421;-58
2022/01/22 03:15:29;;;;;;;4.47;2.15;;;;;;;-0.49;87.41;101243.48;1938132;74;21035;-59
2022/01/22 03:28:06;;;;;;;6.37;1.70;;;;;;;-0.51;87.22;101234.39;1953585;73;21033;-58
2022/01/22 03:30:35;;;;;;;3.55;1.40;;;;;;;-0.45;87.15;101242.23;1953679;73;21040;-59
2022/01/22 03:33:04;;;;;;;4.78;1.77;;;;;;;-0.45;86.90;101243.95;1953753;73;21094;-60
2022/01/22 03:35:35;;;;;;;7.33;2.65;;;;;;;-0.48;86.81;101249.97;1953717;73;21118;-60
2022/01/22 03:38:06;;;;;;;3.98;1.67;;;;;;;-0.54;86.98;101256.33;1953705;73;21534;-60
2022/01/22 03:40:54;;;;;;;5.78;1.98;;;;;;;-0.54;87.12;101249.86;1892909;76;21137;-60
2022/01/22 03:43:24;;;;;;;4.03;1.70;;;;;;;-0.60;87.28;101252.37;1893004;76;21018;-60
2022/01/22 03:45:54;;;;;;;3.30;1.47;;;;;;;-0.61;87.32;101248.02;1893116;76;21034;-59
2022/01/22 03:48:23;;;;;;;7.12;1.70;;;;;;;-0.69;87.25;101244.47;1892834;76;21529;-60
2022/01/22 03:50:53;;;;;;;3.35;2.02;;;;;;;-0.71;87.23;101240.99;1893175;76;21066;-60
2022/01/22 03:53:22;;;;;;;6.15;2.67;;;;;;;-0.71;87.34;101250.91;1893018;76;21582;-59
2022/01/22 03:56:02;;;;;;;6.25;2.10;;;;;;;-0.64;87.30;101250.59;1854886;77;21502;-58
2022/01/22 03:58:43;;;;;;;4.37;2.15;;;;;;;-0.64;87.27;101247.57;1753461;82;21121;-57
2022/01/22 04:04:11;;;;;;;4.00;1.90;;;;;;;-0.62;87.22;101256.66;1772325;79;21104;-58
2022/01/22 04:09:11;;;;;;;2.98;1.40;;;;;;;-0.68;87.18;101260.41;1801446;79;21034;-57
2022/01/22 04:11:43;;;;;;;3.50;1.50;;;;;;;-0.69;87.16;101265.16;1854696;77;21501;-58
2022/01/22 04:14:19;;;;;;;5.58;2.05;;;;;;;-0.69;87.14;101265.16;1854542;77;21071;-57
2022/01/22 04:16:58;;;;;;;8.20;2.67;;;;;;;-0.70;87.19;101263.41;1854095;77;21146;-57
2022/01/22 04:24:51;;;;;;;7.15;1.87;;;;;;;-0.67;87.09;101259.16;1854801;77;21047;-59
2022/01/22 04:27:24;;;;;;;3.55;1.65;;;;;;;-0.69;87.17;101263.86;1854751;77;21117;-56
2022/01/22 04:29:54;;;;;;;4.58;1.72;;;;;;;-0.69;87.15;101269.03;1854504;77;21138;-56
2022/01/22 04:32:22;;;;;;;4.30;1.92;;;;;;;-0.74;86.95;101278.44;1854556;77;21047;-58
2022/01/22 04:34:51;;;;;;;4.28;1.57;;;;;;;-0.84;86.81;101276.99;1854684;77;21028;-60
2022/01/22 04:37:20;;;;;;;5.35;2.08;;;;;;;-0.91;86.80;101282.91;1854616;77;21126;-59
2022/01/22 04:39:49;;;;;;;5.67;1.87;;;;;;;-0.97;86.79;101285.40;1849352;77;21575;-60
2022/01/22 04:42:19;;;;;;;4.47;1.80;;;;;;;-0.99;86.82;101282.78;1840412;78;21132;-59
2022/01/22 04:44:57;;;;;;;4.10;1.82;;;;;;;-0.99;86.84;101280.20;1812120;78;21108;-58
2022/01/22 04:47:41;;;;;;;4.92;1.52;;;;;;;-0.95;87.00;101275.09;1839107;78;21046;-56
2022/01/22 04:52:40;;;;;;;4.28;1.70;;;;;;;-0.83;87.04;101285.61;1840514;78;21168;-57
2022/01/22 04:55:08;;;;;;;4.10;1.67;;;;;;;-0.87;87.05;101279.52;1839834;78;21160;-59
2022/01/22 04:57:40;;;;;;;3.15;1.62;;;;;;;-0.80;86.92;101292.14;1840512;78;21097;-58
2022/01/22 05:00:12;;;;;;;5.40;1.67;;;;;;;-0.78;86.71;101291.30;1840612;78;21134;-58
2022/01/22 05:02:48;;;;;;;3.47;1.92;;;;;;;-0.80;86.54;101295.58;1840242;78;21078;-59
2022/01/22 05:05:21;;;;;;;2.67;1.35;;;;;;;-0.85;86.50;101298.54;1837011;78;21529;-58
2022/01/22 05:07:55;;;;;;;3.10;1.85;;;;;;;-0.85;86.47;101286.01;1838660;78;21200;-58
2022/01/22 05:10:26;;;;;;;5.00;1.42;;;;;;;-0.90;86.47;101288.54;1836689;78;21516;-58
2022/01/22 05:12:55;;;;;;;4.17;1.57;;;;;;;-0.96;86.46;101294.87;1840351;78;21055;-58
2022/01/22 05:15:24;;;;;;;3.52;1.77;;;;;;;-1.01;86.54;101294.81;1840538;78;21103;-58
2022/01/22 05:17:52;;;;;;;4.90;2.05;;;;;;;-1.01;86.64;101297.83;1840408;77;21040;-58
2022/01/22 05:20:31;;;;;;;4.35;2.05;;;;;;;-0.99;86.74;101299.58;1840261;78;21117;-59
2022/01/22 05:25:37;;;;;;;4.30;2.10;;;;;;;-0.91;86.77;101297.13;1840535;77;21547;-59
2022/01/22 05:31:01;;;;;;;4.97;1.85;;;;;;;-0.83;86.62;101312.36;1835893;78;21187;-59
2022/01/22 05:36:55;;;;;;;3.58;1.70;;;;;;;-0.87;86.56;101307.95;1837825;78;21171;-59
2022/01/22 05:38:41;;;;;;;4.05;1.80;;;;;;;-0.89;86.49;101309.65;1821869;78;21118;-59
2022/01/22 05:41:11;;;;;;;4.70;2.08;;;;;;;-0.88;86.53;101309.25;1847143;77;21196;-58
2022/01/22 05:43:40;;;;;;;3.70;2.33;;;;;;;-0.86;86.58;101316.17;1851290;77;21121;-58
2022/01/22 05:46:09;;;;;;;4.55;2.30;;;;;;;-0.82;86.65;101314.09;1851289;77;21132;-59
2022/01/22 05:48:38;;;;;;;11.90;2.08;;;;;;;-0.73;86.71;101312.52;1851351;77;21124;-59
2022/01/22 05:51:07;;;;;;;3.52;2.08;;;;;;;-0.62;86.60;101308.37;1851272;77;21105;-59
2022/01/22 06:01:58;;;;;;;2.58;1.47;;;;;;;-0.31;86.19;101316.62;1851172;77;21045;-59
2022/01/22 06:04:26;;;;;;;4.50;2.02;;;;;;;-0.25;86.23;101314.12;1851200;77;21015;-60
2022/01/22 06:07:03;;;;;;;6.58;2.47;;;;;;;-0.20;86.12;101307.30;1850971;77;21093;-59
2022/01/22 06:09:33;;;;;;;3.92;2.15;;;;;;;-0.15;86.07;101303.03;1851323;77;21120;-60
2022/01/22 06:14:40;;;;;;;3.95;1.87;;;;;;;-0.08;86.34;101301.41;1818615;78;21246;-60
2022/01/22 06:17:09;;;;;;;6.00;1.57;;;;;;;-0.08;86.45;101304.86;1819206;79;21078;-59
2022/01/22 06:19:40;;;;;;;5.55;1.92;;;;;;;-0.07;86.24;101315.67;1818478;78;21505;-59
2022/01/22 06:22:08;;;;;;;5.22;2.25;;;;;;;-0.11;86.09;101315.19;1819183;78;21090;-59
2022/01/22 06:24:37;;;;;;;3.22;2.08;;;;;;;-0.14;85.94;101309.95;1819338;79;21508;-59
2022/01/22 06:27:08;;;;;;;3.35;2.05;;;;;;;-0.18;85.84;101321.13;1818938;78;21112;-58
2022/01/22 06:29:37;;;;;;;2.85;1.50;;;;;;;-0.20;85.86;101310.74;1819236;79;21544;-59
2022/01/22 06:32:07;;;;;;;3.33;1.70;;;;;;;-0.19;85.92;101301.25;1819206;79;21212;-58
2022/01/22 06:34:38;;;;;;;2.08;1.50;;;;;;;-0.08;86.00;101300.97;1819200;79;21078;-58
2022/01/22 06:37:07;;;;;;;5.55;1.98;;;;;;;0.05;85.90;101294.23;1819180;79;21588;-58
2022/01/22 06:40:03;;;;;;;3.70;1.50;;;;;;;0.15;85.89;101291.37;1818546;78;21167;-58
2022/01/22 06:42:25;;;;;;;3.80;2.05;;;;;;;0.22;85.89;101289.27;1771583;80;21121;-59
2022/01/22 06:45:04;;;;;;;5.03;2.17;;;;;;;0.38;85.79;101297.67;1810424;79;21541;-59
2022/01/22 06:47:40;;;;;;;2.52;1.50;;;;;;;0.54;85.46;101290.09;1848092;77;21077;-60
2022/01/22 06:50:14;;;;;;;8.38;1.98;;;;;;;0.68;85.12;101287.23;1849629;77;21147;-59
2022/01/22 06:52:56;;;;;;;4.50;1.90;;;;;;;0.82;84.79;101286.05;1850050;77;21053;-58
2022/01/22 06:55:41;;;;;;;7.95;3.30;;;;;;;0.95;84.60;101281.85;1849868;77;21143;-59
2022/01/22 06:58:03;;;;;;;9.03;3.77;;;;;;;1.11;84.47;101268.61;1848717;77;21141;-59
2022/01/22 07:00:32;;;;;;;10.72;4.17;;;;;;;1.24;84.23;101269.58;1850101;77;21041;-59
2022/01/22 07:03:04;;;;;;;5.87;3.83;;;;;;;1.40;84.02;101267.50;1848323;77;21124;-58
2022/01/22 07:05:33;;;;;;;7.28;4.17;;;;;;;1.54;83.74;101266.31;1850279;77;21058;-57
2022/01/22 07:08:03;;;;;;;7.00;3.95;;;;;;;1.59;83.44;101258.58;1848988;77;21081;-59
2022/01/22 07:10:33;;;;;;;12.43;4.08;;;;;;;1.63;83.27;101261.63;1850040;77;21042;-59
2022/01/22 07:13:02;;;;;;;7.80;3.55;;;;;;;1.71;83.12;101263.38;1867901;76;21089;-57
2022/01/22 07:15:32;;;;;;;6.65;2.80;;;;;;;1.81;83.19;101267.33;1878707;76;21551;-58
2022/01/22 07:18:04;;;;;;;3.65;2.55;;;;;;;1.87;83.31;101269.98;1877713;76;21069;-58
2022/01/22 07:20:34;;;;;;;6.53;2.55;;;;;;;2.01;83.23;101272.62;1832554;78;21106;-58
2022/01/22 07:23:13;;;;;;;7.78;3.60;;;;;;;2.20;83.00;101273.16;1878741;76;21058;-60
2022/01/22 07:25:46;;;;;;;9.55;4.10;;;;;;;2.34;82.62;101274.93;1831337;78;21083;-58
2022/01/22 07:28:22;;;;;;;7.12;4.35;;;;;;;2.45;82.53;101274.53;1823264;76;21082;-60
2022/01/22 07:30:52;;;;;;;10.13;4.37;;;;;;;2.52;82.42;101280.19;1878616;76;21564;-59
2022/01/22 07:33:21;;;;;;;8.50;4.72;;;;;;;2.50;82.55;101285.81;1878814;76;21107;-60
2022/01/22 07:35:52;;;;;;;7.67;5.62;;;;;;;2.46;82.79;101288.84;1878737;76;22366;-59
2022/01/22 07:38:22;;;;;;;7.62;3.62;;;;;;;2.45;82.99;101294.02;1878781;76;21132;-60
2022/01/22 07:40:51;;;;;;;5.67;2.67;;;;;;;2.58;82.60;101293.19;1878844;76;21036;-59
2022/01/22 07:43:21;;;;;;;8.05;3.65;;;;;;;2.67;82.08;101286.75;1855440;76;21089;-59
2022/01/22 07:46:09;;;;;;;16.65;6.67;;;;;;;2.74;81.68;101285.45;1854090;76;21140;-59
2022/01/22 07:48:43;;;;;;;29.63;10.63;;;;;;;2.80;81.32;101288.05;1853317;77;21524;-57
2022/01/22 07:51:14;;;;;;;35.90;12.53;;;;;;;2.85;80.98;101288.94;1854147;77;21078;-58
2022/01/22 07:53:45;;;;;;;37.23;13.95;;;;;;;2.88;80.83;101287.20;1854190;77;21070;-57
2022/01/22 07:56:15;;;;;;;18.15;7.75;;;;;;;2.95;80.75;101285.49;1852240;77;21057;-59
2022/01/22 07:58:44;;;;;;;11.75;6.35;;;;;;;3.02;80.58;101284.60;1854178;77;21086;-57
2022/01/22 08:01:14;;;;;;;13.20;6.08;;;;;;;3.08;80.49;101289.83;1854193;77;21110;-59
2022/01/22 08:04:01;;;;;;;10.08;5.40;;;;;;;3.18;80.49;101291.14;1854057;77;21083;-57
2022/01/22 08:06:34;;;;;;;11.93;6.33;;;;;;;3.22;80.40;101292.42;1839448;77;21057;-57
2022/01/22 08:09:21;;;;;;;10.50;6.78;;;;;;;3.17;80.23;101295.89;1854161;77;21133;-55
2022/01/22 08:11:55;;;;;;;11.48;6.03;;;;;;;3.18;80.36;101295.90;1853606;77;21038;-55
2022/01/22 08:14:25;;;;;;;12.03;5.60;;;;;;;3.18;80.29;101298.50;1854252;77;21555;-58
2022/01/22 08:16:54;;;;;;;10.72;5.90;;;;;;;3.19;80.21;101300.25;1854461;77;21043;-57
2022/01/22 08:19:24;;;;;;;12.68;5.62;;;;;;;3.18;80.17;101305.45;1853730;77;21127;-57
2022/01/22 08:21:54;;;;;;;10.40;6.08;;;;;;;3.23;80.25;101296.77;1854318;77;21505;-57
2022/01/22 08:24:40;;;;;;;11.93;6.42;;;;;;;3.27;80.31;101291.14;1854170;77;21055;-58
2022/01/22 08:27:33;;;;;;;11.70;5.55;;;;;;;3.45;80.34;101295.03;1854277;77;21067;-57
2022/01/22 08:29:50;;;;;;;7.70;4.72;;;;;;;3.60;80.33;101295.89;1852767;77;21048;-57
2022/01/22 08:37:55;;;;;;;8.20;4.95;;;;;;;3.78;80.36;101284.55;1854445;77;21028;-57
2022/01/22 08:40:23;;;;;;;10.28;4.75;;;;;;;3.75;80.46;101275.02;1854264;77;21136;-58
2022/01/22 08:42:52;;;;;;;11.57;5.80;;;;;;;3.78;80.73;101277.63;1870948;76;21133;-59
2022/01/22 08:45:21;;;;;;;11.18;5.53;;;;;;;3.81;82.01;101266.32;1892548;76;21046;-59
2022/01/22 08:47:50;;;;;;;7.58;4.50;;;;;;;3.81;83.44;101259.36;1892637;76;21070;-59
2022/01/22 08:50:19;;;;;;;8.23;4.40;;;;;;;3.84;84.24;101260.67;1892602;76;21641;-57
2022/01/22 08:52:48;;;;;;;5.62;3.58;;;;;;;3.79;84.66;101266.32;1892515;76;21119;-57
2022/01/22 08:55:17;;;;;;;8.38;4.87;;;;;;;3.73;84.98;101261.14;1892762;75;21041;-58
2022/01/22 08:57:49;;;;;;;8.95;5.92;;;;;;;3.67;85.22;101253.31;1892584;76;21501;-59
2022/01/22 09:00:20;;;;;;;10.30;5.78;;;;;;;3.66;85.50;101250.30;1891133;76;21199;-60
2022/01/22 09:02:56;;;;;;;8.73;4.55;;;;;;;3.62;85.64;101235.55;1890913;74;21223;-58
2022/01/22 09:05:32;;;;;;;10.43;5.35;;;;;;;3.58;85.84;101235.11;1841085;76;21139;-58
2022/01/22 09:08:01;;;;;;;8.08;4.67;;;;;;;3.60;86.00;101238.60;1820321;76;21517;-58
2022/01/22 09:10:35;;;;;;;11.63;5.55;;;;;;;3.65;86.49;101244.64;1884391;75;21055;-59
2022/01/22 09:13:10;;;;;;;9.13;5.35;;;;;;;3.63;86.69;101236.86;1894416;74;21173;-67
2022/01/22 09:15:41;;;;;;;12.15;6.30;;;;;;;3.68;86.89;101236.83;1889985;75;21160;-68
2022/01/22 09:18:10;;;;;;;11.28;5.83;;;;;;;3.74;86.91;101230.30;1892803;74;21703;-69
2022/01/22 09:23:12;;;;;;;15.18;6.95;;;;;;;3.68;87.07;101230.33;1895913;75;21058;-61
2022/01/22 09:25:42;;;;;;;14.58;5.37;;;;;;;3.77;87.06;101234.64;1896115;75;21138;-60
2022/01/22 09:28:13;;;;;;;8.03;3.75;;;;;;;3.91;87.17;101234.17;1892950;75;21683;-60
2022/01/22 09:30:46;;;;;;;9.75;4.03;;;;;;;4.12;87.56;101232.34;1878196;75;21127;-58
2022/01/22 09:33:15;;;;;;;7.22;2.85;;;;;;;4.30;87.96;101232.67;1873657;76;21101;-58
2022/01/22 09:35:58;;;;;;;7.28;3.92;;;;;;;4.54;87.78;101236.46;1825715;77;21089;-58
2022/01/22 09:38:31;;;;;;;10.28;3.98;;;;;;;4.73;87.69;101232.42;1850972;77;21168;-57
2022/01/22 09:41:11;;;;;;;12.63;4.58;;;;;;;4.81;87.46;101231.50;1787694;80;21486;-58
2022/01/22 09:43:48;;;;;;;12.07;4.28;;;;;;;4.69;87.09;101225.06;1819651;78;21099;-59
2022/01/22 09:46:36;;;;;;;7.95;3.72;;;;;;;4.55;86.67;101219.92;1817474;79;21407;-58
2022/01/22 09:49:06;;;;;;;9.03;4.00;;;;;;;4.55;86.94;101222.53;1812947;79;21198;-57
2022/01/22 09:51:45;;;;;;;8.20;4.75;;;;;;;4.60;86.95;101219.91;1813044;79;21072;-56
2022/01/22 09:54:15;;;;;;;7.25;4.80;;;;;;;4.63;86.98;101216.84;1806308;79;21162;-58
2022/01/22 09:57:06;;;;;;;10.58;5.60;;;;;;;4.50;87.29;101227.34;1822935;79;21196;-58
2022/01/22 09:59:42;;;;;;;7.72;4.17;;;;;;;4.40;87.30;101220.88;1820005;79;21112;-57
2022/01/22 10:02:16;;;;;;;10.72;5.65;;;;;;;4.38;87.12;101210.91;1821805;79;21101;-57
2022/01/22 10:04:48;;;;;;;23.10;9.38;;;;;;;4.32;86.78;101208.34;1823044;79;21132;-57
2022/01/22 10:07:34;;;;;;;16.25;8.00;;;;;;;4.26;86.70;101212.30;1823073;79;21060;-58
2022/01/22 10:10:07;;;;;;;11.12;5.97;;;;;;;4.28;86.80;101209.66;1820833;79;21552;-57
2022/01/22 10:12:51;;;;;;;9.55;5.22;;;;;;;4.29;86.73;101212.70;1823026;78;21109;-58
2022/01/22 10:15:24;;;;;;;11.10;5.35;;;;;;;4.30;86.71;101210.09;1816636;79;21101;-57
2022/01/22 10:17:56;;;;;;;8.73;5.22;;;;;;;4.31;86.63;101210.95;1823061;79;21493;-57
2022/01/22 10:20:30;;;;;;;11.53;5.15;;;;;;;4.37;86.67;101219.62;1822460;79;21646;-57
2022/01/22 10:23:02;;;;;;;10.50;5.15;;;;;;;4.46;86.68;101213.45;1823034;79;21425;-57
2022/01/22 10:25:40;;;;;;;11.38;5.17;;;;;;;4.48;86.60;101218.67;1823071;79;21073;-57
2022/01/22 10:28:31;;;;;;;8.10;4.80;;;;;;;4.49;86.63;101221.28;1823063;78;21053;-57
2022/01/22 10:30:46;;;;;;;14.83;5.20;;;;;;;4.40;86.51;101220.88;1814948;79;21226;-57
2022/01/22 10:33:30;;;;;;;10.80;5.25;;;;;;;4.39;86.49;101224.38;1823096;79;21144;-57
2022/01/22 10:36:21;;;;;;;12.43;4.75;;;;;;;4.41;86.68;101220.47;1823022;79;21139;-57
2022/01/22 10:39:24;;;;;;;11.33;5.03;;;;;;;4.47;86.72;101224.33;1822966;79;21191;-56
2022/01/22 10:41:54;;;;;;;14.10;5.08;;;;;;;4.46;86.75;101221.28;1823029;78;21602;-57
2022/01/22 10:44:47;;;;;;;40.80;17.75;;;;;;;4.38;86.77;101216.56;1823027;79;21531;-57
2022/01/22 10:47:22;;;;;;;20.55;10.32;;;;;;;4.40;86.98;101221.33;1822781;77;21085;-58
2022/01/22 10:49:51;;;;;;;21.35;12.10;;;;;;;4.41;87.03;101223.08;1823026;79;21084;-57
2022/01/22 10:52:20;;;;;;;14.45;6.55;;;;;;;4.47;87.20;101224.78;1823103;79;21021;-57
2022/01/22 10:54:50;;;;;;;14.47;5.35;;;;;;;4.41;87.05;101207.43;1823132;79;21022;-57
2022/01/22 10:57:23;;;;;;;11.08;5.25;;;;;;;4.40;87.14;101205.69;1868210;76;21102;-57
2022/01/22 11:00:00;;;;;;;12.73;4.40;;;;;;;4.41;87.21;101200.91;1875041;76;21058;-57
2022/01/22 11:02:33;;;;;;;8.73;4.10;;;;;;;4.51;87.36;101202.57;1873787;76;21074;-57
2022/01/22 11:05:03;;;;;;;8.78;4.08;;;;;;;4.51;87.36;101202.57;1874875;76;21047;-58
2022/01/22 11:07:31;;;;;;;7.15;4.10;;;;;;;4.54;87.25;101193.43;1874395;75;21149;-55
2022/01/22 11:10:01;;;;;;;9.93;4.35;;;;;;;4.50;87.08;101181.30;1873033;76;21148;-56
2022/01/22 11:12:30;;;;;;;9.60;4.60;;;;;;;4.44;86.79;101173.08;1872944;76;21098;-56
2022/01/22 11:14:59;;;;;;;5.22;3.62;;;;;;;4.41;86.81;101176.14;1873036;76;21493;-56
2022/01/22 11:17:34;;;;;;;10.00;4.10;;;;;;;4.40;86.93;101169.18;1873018;76;21141;-56
2022/01/22 11:20:03;;;;;;;9.33;3.60;;;;;;;4.36;86.69;101171.39;1872996;76;21477;-56
2022/01/22 11:22:33;;;;;;;9.13;3.72;;;;;;;4.44;86.70;101180.02;1872899;76;21117;-56
2022/01/22 11:25:03;;;;;;;7.25;3.20;;;;;;;4.43;86.48;101187.42;1873052;76;21584;-56
2022/01/22 11:27:33;;;;;;;7.25;3.87;;;;;;;4.48;86.48;101188.23;1872910;76;21055;-56
2022/01/22 11:30:08;;;;;;;4.58;2.65;;;;;;;4.49;86.33;101191.28;1873028;76;21078;-55
2022/01/22 11:32:42;;;;;;;12.75;3.25;;;;;;;4.40;86.05;101186.13;1872886;76;21101;-55
2022/01/22 11:35:12;;;;;;;7.50;2.22;;;;;;;4.32;85.96;101192.70;1867385;76;21537;-56
2022/01/22 11:37:46;;;;;;;6.65;2.52;;;;;;;4.22;85.91;101189.70;1872945;76;21051;-56
2022/01/22 11:40:26;;;;;;;7.85;2.85;;;;;;;4.03;85.93;101181.12;1922720;73;21101;-55
2022/01/22 11:43:09;;;;;;;8.23;3.75;;;;;;;3.90;86.12;101172.50;1961986;73;21120;-54
2022/01/22 11:45:42;;;;;;;12.85;4.78;;;;;;;3.81;86.37;101179.05;1963827;73;21493;-57
2022/01/22 11:48:19;;;;;;;8.70;3.87;;;;;;;3.77;86.46;101176.90;1964293;73;21027;-56
2022/01/22 11:50:51;;;;;;;8.15;3.62;;;;;;;3.71;86.42;101169.12;1964003;73;21027;-56
2022/01/22 11:53:30;;;;;;;10.55;3.58;;;;;;;3.72;86.66;101179.95;1963980;73;21061;-56
2022/01/22 11:56:25;;;;;;;5.55;2.67;;;;;;;3.79;87.03;101184.71;1963832;73;21022;-56
2022/01/22 11:59:02;;;;;;;4.03;2.45;;;;;;;3.85;87.14;101183.38;1963732;73;21031;-56
2022/01/22 12:01:56;;;;;;;4.12;2.30;;;;;;;3.86;87.12;101179.46;1963907;73;21057;-56
2022/01/22 12:04:31;;;;;;;3.83;2.30;;;;;;;3.88;87.05;101183.37;1961836;73;21074;-57
2022/01/22 12:07:07;;;;;;;6.47;2.90;;;;;;;3.86;86.90;101182.07;1960522;73;21039;-55
2022/01/22 12:15:35;;;;;;;;;;;;;;;3.62;86.67;101170.45;1966817;73;21051;-55
2022/01/22 12:18:12;;;;;;;6.17;4.00;;;;;;;3.63;86.89;101169.56;1964063;73;20150;-54
2022/01/22 12:23:22;;;;;;;4.53;2.70;;;;;;;3.48;86.95;101153.56;1963873;73;21030;-54
2022/01/22 12:25:52;;;;;;;7.08;2.75;;;;;;;3.43;86.97;101156.19;1958821;73;21434;-54
2022/01/22 12:28:41;;;;;;;4.12;2.55;;;;;;;3.41;86.91;101147.94;1963885;73;21121;-55
2022/01/22 12:31:15;;;;;;;8.63;3.70;;;;;;;3.39;86.90;101146.63;1963901;73;21027;-55
2022/01/22 12:33:44;;;;;;;9.83;4.08;;;;;;;3.28;86.77;101151.90;1963350;73;21014;-57
2022/01/22 12:36:24;;;;;;;4.33;2.95;;;;;;;3.24;86.81;101155.80;1963889;73;21071;-57
2022/01/22 12:39:16;;;;;;;4.70;2.92;;;;;;;3.23;86.88;101159.28;1967398;71;21034;-58
2022/01/22 12:46:55;;;;;;;5.45;2.50;;;;;;;3.15;86.96;101171.42;2003505;71;21086;-57
2022/01/22 12:49:25;;;;;;;4.75;2.70;;;;;;;3.11;86.92;101165.80;2002072;71;21510;-57
2022/01/22 12:51:59;;;;;;;3.52;2.30;;;;;;;3.05;86.96;101170.14;2003415;71;21108;-57
2022/01/22 12:54:35;;;;;;;3.98;2.45;;;;;;;2.98;86.80;101170.15;2001813;71;21517;-57
2022/01/22 12:57:11;;;;;;;5.35;2.60;;;;;;;2.86;86.62;101171.04;2003406;71;21023;-57
2022/01/22 13:00:12;;;;;;;4.45;2.40;;;;;;;2.81;86.66;101167.12;2003429;71;21051;-57
2022/01/22 13:02:45;;;;;;;3.25;2.10;;;;;;;2.74;86.69;101167.12;2002709;71;21043;-59
2022/01/22 13:05:17;;;;;;;5.33;2.35;;;;;;;2.68;86.86;101168.00;2003374;71;21104;-58
2022/01/22 13:07:57;;;;;;;3.40;2.37;;;;;;;2.63;87.16;101187.48;1998133;71;21042;-57
2022/01/22 13:10:36;;;;;;;4.87;2.65;;;;;;;2.59;87.29;101192.25;1928878;71;21058;-57
2022/01/22 13:13:06;;;;;;;6.75;3.77;;;;;;;2.54;87.28;101193.97;2002388;71;21061;-58
2022/01/22 13:15:36;;;;;;;11.10;4.50;;;;;;;2.53;87.22;101190.95;2003514;71;21458;-58
2022/01/22 13:18:05;;;;;;;17.48;6.75;;;;;;;2.44;86.82;101192.23;2003428;71;21019;-57
2022/01/22 13:20:36;;;;;;;26.93;10.90;;;;;;;2.37;86.67;101199.58;2003439;71;21047;-57
2022/01/22 13:23:16;;;;;;;26.93;9.20;;;;;;;2.34;86.84;101199.56;2003361;71;20999;-57
2022/01/22 13:25:45;;;;;;;20.52;7.70;;;;;;;2.30;86.73;101196.95;2003299;71;21019;-57
2022/01/22 13:28:15;;;;;;;9.33;5.83;;;;;;;2.22;86.50;101187.42;2003441;71;21047;-58
2022/01/22 13:30:48;;;;;;;12.05;5.83;;;;;;;2.15;86.42;101185.23;2003499;71;21027;-57
2022/01/22 13:36:17;;;;;;;5.37;3.58;;;;;;;2.03;86.41;101183.88;1963217;73;21042;-57